createdAt,value
2022-12-03T00:00:08.936Z,101358.13
2022-12-03T00:03:14.443Z,101354.75
2022-12-03T00:06:17.532Z,101356.13
2022-12-03T00:09:19.773Z,101365.63
2022-12-03T00:12:21.739Z,101364.81
2022-12-03T00:15:24.071Z,101364.00
2022-12-03T00:18:25.968Z,101372.94
2022-12-03T00:21:28.312Z,101374.69
2022-12-03T00:24:30.286Z,101374.72
2022-12-03T00:27:33.013Z,101381.69
2022-12-03T00:30:35.386Z,101382.19
2022-12-03T00:33:37.682Z,101373.44
2022-12-03T00:36:39.661Z,101388.41
2022-12-03T00:39:41.873Z,101384.09
2022-12-03T00:42:43.777Z,101388.53
2022-12-03T00:45:46.058Z,101385.87
2022-12-03T00:48:48.193Z,101389.28
2022-12-03T00:51:50.549Z,101389.47
2022-12-03T00:54:52.629Z,101380.75
2022-12-03T00:57:55.060Z,101392.97
2022-12-03T01:00:56.981Z,101387.91
2022-12-03T01:03:59.672Z,101382.47
2022-12-03T01:07:01.589Z,101382.34
2022-12-03T01:10:05.016Z,101381.28
2022-12-03T01:13:06.966Z,101379.66
2022-12-03T01:16:09.575Z,101383.88
2022-12-03T01:19:16.117Z,101378.69
2022-12-03T01:22:18.841Z,101387.47
2022-12-03T01:25:20.860Z,101376.88
2022-12-03T01:28:26.860Z,101383.16
2022-12-03T01:31:47.381Z,101383.09
2022-12-03T01:34:52.010Z,101387.38
2022-12-03T01:37:54.168Z,101384.91
2022-12-03T01:40:56.504Z,101389.31
2022-12-03T01:43:58.831Z,101385.75
2022-12-03T01:47:03.343Z,101394.22
2022-12-03T01:50:06.821Z,101391.53
2022-12-03T01:53:11.546Z,101388.91
2022-12-03T01:56:17.601Z,101399.66
2022-12-03T01:59:20.625Z,101389.09
2022-12-03T02:02:27.094Z,101390.75
2022-12-03T02:05:33.305Z,101399.41
2022-12-03T02:08:36.321Z,101395.97
2022-12-03T02:11:43.528Z,101394.34
2022-12-03T02:14:46.864Z,101377.59
2022-12-03T02:17:49.165Z,101384.62
2022-12-03T02:21:01.918Z,101371.50
2022-12-03T02:24:03.778Z,101375.84
2022-12-03T02:27:06.328Z,101382.59
2022-12-03T02:30:09.129Z,101381.66
2022-12-03T02:33:11.457Z,101385.13
2022-12-03T02:36:13.449Z,101384.53
2022-12-03T02:39:15.749Z,101387.91
2022-12-03T02:42:37.982Z,101381.12
2022-12-03T02:45:42.682Z,101374.97
2022-12-03T02:48:44.638Z,101382.66
2022-12-03T02:51:46.954Z,101385.25
2022-12-03T02:54:49.241Z,101376.56
2022-12-03T02:57:51.709Z,101382.66
2022-12-03T03:00:54.280Z,101384.38
2022-12-03T03:03:56.523Z,101389.00
2022-12-03T03:06:58.905Z,101389.03
2022-12-03T03:10:01.899Z,101379.97
2022-12-03T03:13:06.597Z,101378.12
2022-12-03T03:16:09.096Z,101374.84
2022-12-03T03:19:11.198Z,101372.91
2022-12-03T03:22:14.068Z,101374.75
2022-12-03T03:25:18.338Z,101382.59
2022-12-03T03:28:20.599Z,101390.41
2022-12-03T03:31:23.752Z,101386.00
2022-12-03T03:34:26.212Z,101384.53
2022-12-03T03:37:28.405Z,101380.13
2022-12-03T03:40:30.964Z,101380.84
2022-12-03T03:43:34.817Z,101387.00
2022-12-03T03:46:37.621Z,101379.97
2022-12-03T03:49:39.867Z,101378.25
2022-12-03T03:52:42.705Z,101381.06
2022-12-03T03:55:44.886Z,101382.72
2022-12-03T03:58:47.113Z,101380.91
2022-12-03T04:01:49.137Z,101378.34
2022-12-03T04:04:51.979Z,101381.06
2022-12-03T04:07:54.193Z,101377.47
2022-12-03T04:11:15.068Z,101384.50
2022-12-03T04:14:17.028Z,101380.88
2022-12-03T04:17:19.336Z,101395.87
2022-12-03T04:20:21.377Z,101388.03
2022-12-03T04:23:29.242Z,101395.03
2022-12-03T04:26:52.153Z,101380.13
2022-12-03T04:29:54.837Z,101380.84
2022-12-03T04:33:16.532Z,101383.25
2022-12-03T04:36:18.697Z,101385.87
2022-12-03T04:39:20.654Z,101382.47
2022-12-03T04:42:24.177Z,101391.00
2022-12-03T04:45:26.157Z,101381.50
2022-12-03T04:48:29.071Z,101390.47
2022-12-03T04:51:31.114Z,101381.88
2022-12-03T04:54:33.785Z,101389.84
2022-12-03T04:57:35.675Z,101390.63
2022-12-03T05:00:37.937Z,101399.41
2022-12-03T05:03:39.930Z,101395.16
2022-12-03T05:06:42.659Z,101394.47
2022-12-03T05:09:44.684Z,101391.03
2022-12-03T05:12:47.266Z,101394.00
2022-12-03T05:15:49.196Z,101408.22
2022-12-03T05:18:51.459Z,101408.38
2022-12-03T05:21:53.432Z,101410.88
2022-12-03T05:24:56.042Z,101403.91
2022-12-03T05:27:58.563Z,101409.06
2022-12-03T05:31:01.021Z,101410.78
2022-12-03T05:34:03.049Z,101408.28
2022-12-03T05:37:05.308Z,101402.16
2022-12-03T05:40:07.593Z,101399.28
2022-12-03T05:43:09.858Z,101406.06
2022-12-03T05:46:11.965Z,101414.69
2022-12-03T05:49:14.302Z,101411.19
2022-12-03T05:52:16.244Z,101408.56
2022-12-03T05:55:18.759Z,101410.25
2022-12-03T05:58:20.778Z,101415.56
2022-12-03T06:01:23.041Z,101421.53
2022-12-03T06:04:26.974Z,101420.44
2022-12-03T06:07:29.007Z,101437.66
2022-12-03T06:10:31.554Z,101429.13
2022-12-03T06:13:33.525Z,101429.22
2022-12-03T06:16:36.395Z,101428.88
2022-12-03T06:19:38.493Z,101417.56
2022-12-03T06:22:40.758Z,101422.97
2022-12-03T06:25:42.704Z,101425.22
2022-12-03T06:28:46.428Z,101428.06
2022-12-03T06:31:48.355Z,101420.81
2022-12-03T06:34:50.765Z,101417.25
2022-12-03T06:37:52.814Z,101406.87
2022-12-03T06:40:55.062Z,101417.94
2022-12-03T06:43:57.097Z,101427.22
2022-12-03T06:46:59.447Z,101426.34
2022-12-03T06:50:01.587Z,101424.59
2022-12-03T06:53:04.209Z,101422.94
2022-12-03T06:56:06.220Z,101422.69
2022-12-03T06:59:08.558Z,101419.94
2022-12-03T07:02:11.801Z,101429.72
2022-12-03T07:05:14.113Z,101429.63
2022-12-03T07:08:16.140Z,101428.84
2022-12-03T07:11:39.814Z,101432.22
2022-12-03T07:14:41.728Z,101430.63
2022-12-03T07:17:44.370Z,101420.84
2022-12-03T07:20:46.471Z,101424.88
2022-12-03T07:23:48.705Z,101427.44
2022-12-03T07:26:50.733Z,101425.53
2022-12-03T07:29:53.023Z,101428.09
2022-12-03T07:32:55.176Z,101425.47
2022-12-03T07:35:57.453Z,101428.78
2022-12-03T07:39:00.644Z,101434.44
2022-12-03T07:42:03.056Z,101426.03
2022-12-03T07:45:05.703Z,101436.94
2022-12-03T07:48:08.583Z,101441.94
2022-12-03T07:51:15.306Z,101439.50
2022-12-03T07:54:19.513Z,101426.47
2022-12-03T07:57:21.457Z,101429.66
2022-12-03T08:00:24.105Z,101421.34
2022-12-03T08:03:26.310Z,101423.69
2022-12-03T08:06:28.242Z,101425.06
2022-12-03T08:09:31.447Z,101420.37
2022-12-03T08:12:41.282Z,101433.84
2022-12-03T08:15:43.909Z,101427.88
2022-12-03T08:18:47.047Z,101438.00
2022-12-03T08:21:49.274Z,101429.59
2022-12-03T08:24:51.496Z,101440.41
2022-12-03T08:27:56.624Z,101446.38
2022-12-03T08:31:01.790Z,101449.06
2022-12-03T08:34:15.704Z,101442.69
2022-12-03T08:37:18.895Z,101446.72
2022-12-03T08:40:32.731Z,101444.47
2022-12-03T08:43:41.879Z,101449.63
2022-12-03T08:46:44.686Z,101437.59
2022-12-03T08:49:53.656Z,101443.34
2022-12-03T08:53:20.036Z,101451.97
2022-12-03T08:56:26.346Z,101456.94
2022-12-03T08:59:30.571Z,101456.38
2022-12-03T09:02:34.176Z,101459.91
2022-12-03T09:05:37.331Z,101461.22
2022-12-03T09:08:39.389Z,101462.34
2022-12-03T09:11:43.246Z,101456.53
2022-12-03T09:14:45.148Z,101464.69
2022-12-03T09:17:48.841Z,101455.03
2022-12-03T09:20:50.733Z,101449.88
2022-12-03T09:23:52.968Z,101441.03
2022-12-03T09:26:54.899Z,101440.69
2022-12-03T09:29:57.896Z,101441.31
2022-12-03T09:33:00.220Z,101437.34
2022-12-03T09:36:02.498Z,101433.75
2022-12-03T09:39:04.915Z,101437.78
2022-12-03T09:42:07.526Z,101429.13
2022-12-03T09:45:10.881Z,101426.25
2022-12-03T09:48:18.095Z,101422.28
2022-12-03T09:51:20.125Z,101415.31
2022-12-03T09:54:24.386Z,101422.47
2022-12-03T09:57:26.284Z,101423.87
2022-12-03T10:00:30.149Z,101417.63
2022-12-03T10:03:32.495Z,101421.03
2022-12-03T10:06:34.449Z,101410.72
2022-12-03T10:09:36.792Z,101406.75
2022-12-03T10:12:38.727Z,101403.19
2022-12-03T10:15:41.027Z,101397.44
2022-12-03T10:18:47.272Z,101399.69
2022-12-03T10:21:49.545Z,101390.69
2022-12-03T10:25:06.075Z,101394.69
2022-12-03T10:28:08.331Z,101387.19
2022-12-03T10:31:11.447Z,101380.88
2022-12-03T10:34:13.699Z,101375.84
2022-12-03T10:37:15.661Z,101373.69
2022-12-03T10:40:24.381Z,101367.50
2022-12-03T10:43:28.464Z,101367.00
2022-12-03T10:46:34.155Z,101361.78
2022-12-03T10:49:36.476Z,101367.69
2022-12-03T10:52:39.603Z,101353.06
2022-12-03T10:55:43.188Z,101356.44
2022-12-03T10:58:45.843Z,101357.81
2022-12-03T11:01:48.249Z,101352.09
2022-12-03T11:04:51.277Z,101350.22
2022-12-03T11:07:53.781Z,101349.66
2022-12-03T11:10:57.334Z,101346.03
2022-12-03T11:14:00.158Z,101343.31
2022-12-03T11:17:02.450Z,101332.66
2022-12-03T11:20:04.904Z,101326.41
2022-12-03T11:23:10.300Z,101329.97
2022-12-03T11:26:19.292Z,101324.00
2022-12-03T11:29:43.257Z,101321.81
2022-12-03T11:32:45.188Z,101316.66
2022-12-03T11:36:02.707Z,101319.88
2022-12-03T11:39:04.701Z,101307.72
2022-12-03T11:42:28.437Z,101302.63
2022-12-03T11:45:35.464Z,101302.91
2022-12-03T11:48:44.208Z,101299.94
2022-12-03T11:51:46.138Z,101300.12
2022-12-03T11:54:50.251Z,101301.81
2022-12-03T11:57:57.061Z,101295.50
2022-12-03T12:01:00.688Z,101297.41
2022-12-03T12:04:04.074Z,101289.84
2022-12-03T12:07:06.602Z,101287.94
2022-12-03T12:10:08.969Z,101292.72
2022-12-03T12:13:26.302Z,101287.94
2022-12-03T12:16:39.714Z,101278.53
2022-12-03T12:19:43.158Z,101279.38
2022-12-03T12:22:45.485Z,101277.06
2022-12-03T12:25:53.750Z,101270.84
2022-12-03T12:28:56.629Z,101270.53
2022-12-03T12:32:00.769Z,101269.59
2022-12-03T12:35:14.845Z,101279.94
2022-12-03T12:38:18.326Z,101287.06
2022-12-03T12:41:20.497Z,101278.78
2022-12-03T12:44:23.593Z,101267.97
2022-12-03T12:47:26.032Z,101274.50
2022-12-03T12:50:31.017Z,101267.13
2022-12-03T12:53:34.832Z,101269.00
2022-12-03T12:56:37.077Z,101254.09
2022-12-03T12:59:39.487Z,101257.31
2022-12-03T13:02:44.272Z,101262.50
2022-12-03T13:05:47.742Z,101261.53
2022-12-03T13:08:50.338Z,101252.50
2022-12-03T13:12:03.977Z,101245.47
2022-12-03T13:15:07.850Z,101253.63
2022-12-03T13:18:36.344Z,101262.19
2022-12-03T13:21:39.865Z,101271.25
2022-12-03T13:24:48.028Z,101272.97
2022-12-03T13:27:50.548Z,101267.84
2022-12-03T13:30:52.791Z,101276.88
2022-12-03T13:33:55.489Z,101269.75
2022-12-03T13:36:58.802Z,101273.25
2022-12-03T13:40:08.168Z,101276.38
2022-12-03T13:43:12.307Z,101269.22
2022-12-03T13:46:16.069Z,101277.59
2022-12-03T13:49:21.613Z,101273.75
2022-12-03T13:52:26.756Z,101271.13
2022-12-03T13:55:30.546Z,101268.34
2022-12-03T13:58:32.470Z,101272.31
2022-12-03T14:01:35.998Z,101275.84
2022-12-03T14:04:39.068Z,101275.41
2022-12-03T14:07:41.087Z,101274.75
2022-12-03T14:10:43.404Z,101273.16
2022-12-03T14:13:45.456Z,101284.94
2022-12-03T14:16:47.876Z,101276.25
2022-12-03T14:19:50.068Z,101277.97
2022-12-03T14:22:58.860Z,101283.59
2022-12-03T14:26:01.356Z,101280.47
2022-12-03T14:29:08.545Z,101284.87
2022-12-03T14:32:11.271Z,101288.63
2022-12-03T14:35:13.633Z,101281.56
2022-12-03T14:38:15.588Z,101285.91
2022-12-03T14:41:36.878Z,101290.13
2022-12-03T14:44:39.628Z,101290.38
2022-12-03T14:47:42.176Z,101293.22
2022-12-03T14:50:44.091Z,101289.72
2022-12-03T14:53:46.432Z,101288.28
2022-12-03T14:56:48.490Z,101295.47
2022-12-03T14:59:50.944Z,101290.56
2022-12-03T15:02:53.023Z,101289.81
2022-12-03T15:05:55.723Z,101295.22
2022-12-03T15:08:57.704Z,101290.87
2022-12-03T15:12:00.085Z,101289.03
2022-12-03T15:15:02.180Z,101298.88
2022-12-03T15:18:07.035Z,101303.34
2022-12-03T15:21:09.373Z,101299.47
2022-12-03T15:24:11.709Z,101298.50
2022-12-03T15:27:13.656Z,101298.56
2022-12-03T15:30:16.238Z,101301.25
2022-12-03T15:33:18.275Z,101304.44
2022-12-03T15:36:20.594Z,101297.53
2022-12-03T15:39:22.698Z,101304.37
2022-12-03T15:42:24.929Z,101303.12
2022-12-03T15:45:26.860Z,101299.66
2022-12-03T15:48:29.526Z,101306.78
2022-12-03T15:51:31.749Z,101300.38
2022-12-03T15:54:36.874Z,101300.72
2022-12-03T15:57:39.463Z,101301.94
2022-12-03T16:00:42.483Z,101300.31
2022-12-03T16:03:46.255Z,101306.31
2022-12-03T16:06:48.225Z,101301.25
2022-12-03T16:09:50.772Z,101298.34
2022-12-03T16:12:52.700Z,101306.09
2022-12-03T16:15:55.054Z,101301.84
2022-12-03T16:18:57.120Z,101308.97
2022-12-03T16:21:59.347Z,101313.00
2022-12-03T16:25:03.144Z,101311.53
2022-12-03T16:28:05.745Z,101313.38
2022-12-03T16:31:07.829Z,101311.59
2022-12-03T16:34:10.089Z,101312.72
2022-12-03T16:37:12.169Z,101307.84
2022-12-03T16:40:22.229Z,101308.97
2022-12-03T16:43:24.124Z,101316.81
2022-12-03T16:46:26.670Z,101310.44
2022-12-03T16:49:28.888Z,101307.63
2022-12-03T16:52:32.116Z,101305.59
2022-12-03T16:55:34.026Z,101313.06
2022-12-03T16:58:36.239Z,101306.88
2022-12-03T17:01:38.236Z,101311.56
2022-12-03T17:04:42.903Z,101312.41
2022-12-03T17:07:45.330Z,101305.59
2022-12-03T17:10:47.660Z,101313.69
2022-12-03T17:13:50.826Z,101302.06
2022-12-03T17:16:54.182Z,101317.34
2022-12-03T17:19:56.484Z,101303.88
2022-12-03T17:23:00.095Z,101309.03
2022-12-03T17:26:02.416Z,101301.09
2022-12-03T17:29:04.754Z,101310.84
2022-12-03T17:32:06.799Z,101310.84
2022-12-03T17:35:12.632Z,101314.50
2022-12-03T17:38:15.036Z,101317.12
2022-12-03T17:41:19.046Z,101303.09
2022-12-03T17:44:21.564Z,101310.06
2022-12-03T17:47:23.883Z,101317.81
2022-12-03T17:50:25.854Z,101312.84
2022-12-03T17:53:28.275Z,101314.56
2022-12-03T17:56:30.264Z,101316.72
2022-12-03T17:59:32.510Z,101308.69
2022-12-03T18:02:36.799Z,101314.72
2022-12-03T18:05:39.169Z,101314.56
2022-12-03T18:08:41.077Z,101303.44
2022-12-03T18:11:43.859Z,101308.59
2022-12-03T18:14:46.128Z,101309.91
2022-12-03T18:17:48.433Z,101309.66
2022-12-03T18:20:51.572Z,101311.31
2022-12-03T18:23:54.448Z,101304.41
2022-12-03T18:26:56.375Z,101308.03
2022-12-03T18:29:58.709Z,101308.81
2022-12-03T18:33:00.686Z,101311.47
2022-12-03T18:36:03.125Z,101315.72
2022-12-03T18:39:06.129Z,101318.63
2022-12-03T18:42:14.589Z,101325.81
2022-12-03T18:45:17.673Z,101317.06
2022-12-03T18:48:19.941Z,101315.50
2022-12-03T18:51:24.825Z,101322.28
2022-12-03T18:54:27.018Z,101323.12
2022-12-03T18:57:29.302Z,101321.31
2022-12-03T19:00:32.087Z,101321.53
2022-12-03T19:03:34.182Z,101322.44
2022-12-03T19:06:37.134Z,101322.63
2022-12-03T19:09:39.566Z,101319.19
2022-12-03T19:12:41.817Z,101309.50
2022-12-03T19:15:43.801Z,101312.34
2022-12-03T19:18:46.267Z,101318.53
2022-12-03T19:21:48.298Z,101317.53
2022-12-03T19:24:50.520Z,101316.81
2022-12-03T19:27:56.626Z,101316.16
2022-12-03T19:31:03.018Z,101323.88
2022-12-03T19:34:04.993Z,101326.75
2022-12-03T19:37:07.243Z,101326.50
2022-12-03T19:40:10.389Z,101332.75
2022-12-03T19:43:12.778Z,101334.47
2022-12-03T19:46:14.885Z,101339.03
2022-12-03T19:49:20.763Z,101339.13
2022-12-03T19:52:22.748Z,101339.94
2022-12-03T19:55:25.285Z,101343.91
2022-12-03T19:58:27.180Z,101339.53
2022-12-03T20:01:31.382Z,101336.97
2022-12-03T20:04:33.740Z,101331.56
2022-12-03T20:07:35.738Z,101335.66
2022-12-03T20:10:38.161Z,101340.34
2022-12-03T20:13:40.955Z,101338.87
2022-12-03T20:16:43.971Z,101333.13
2022-12-03T20:19:45.974Z,101342.22
2022-12-03T20:22:48.297Z,101339.78
2022-12-03T20:25:50.225Z,101342.47
2022-12-03T20:28:53.515Z,101342.37
2022-12-03T20:31:55.514Z,101347.66
2022-12-03T20:34:57.813Z,101333.56
2022-12-03T20:37:59.845Z,101335.91
2022-12-03T20:41:07.114Z,101339.88
2022-12-03T20:44:09.726Z,101338.16
2022-12-03T20:47:11.935Z,101338.94
2022-12-03T20:50:13.854Z,101331.06
2022-12-03T20:53:24.664Z,101335.59
2022-12-03T20:56:39.289Z,101324.19
2022-12-03T20:59:41.676Z,101336.06
2022-12-03T21:02:43.818Z,101334.53
2022-12-03T21:05:46.208Z,101331.91
2022-12-03T21:08:48.620Z,101328.28
2022-12-03T21:11:50.942Z,101329.09
2022-12-03T21:15:01.485Z,101329.50
2022-12-03T21:18:03.839Z,101327.69
2022-12-03T21:21:06.747Z,101326.22
2022-12-03T21:24:10.402Z,101318.37
2022-12-03T21:27:14.586Z,101316.13
2022-12-03T21:30:20.654Z,101321.47
2022-12-03T21:33:22.572Z,101325.41
2022-12-03T21:36:25.387Z,101334.91
2022-12-03T21:39:27.459Z,101331.72
2022-12-03T21:42:35.475Z,101324.03
2022-12-03T21:45:42.321Z,101324.00
2022-12-03T21:48:45.094Z,101320.16
2022-12-03T21:51:47.091Z,101315.09
2022-12-03T21:54:52.172Z,101311.37
2022-12-03T21:57:54.325Z,101314.50
2022-12-03T22:00:56.639Z,101320.44
2022-12-03T22:03:59.052Z,101314.19
2022-12-03T22:07:01.228Z,101309.78
2022-12-03T22:10:04.384Z,101313.69
2022-12-03T22:13:06.431Z,101314.50
2022-12-03T22:16:14.720Z,101311.37
2022-12-03T22:19:16.678Z,101315.41
2022-12-03T22:22:19.995Z,101318.75
2022-12-03T22:25:22.312Z,101312.69
2022-12-03T22:28:24.507Z,101313.38
2022-12-03T22:31:26.561Z,101306.53
2022-12-03T22:34:28.916Z,101301.84
2022-12-03T22:37:32.788Z,101306.12
2022-12-03T22:40:35.241Z,101303.69
2022-12-03T22:43:37.180Z,101298.34
2022-12-03T22:46:39.778Z,101293.19
2022-12-03T22:49:41.895Z,101296.09
2022-12-03T22:52:44.434Z,101297.78
2022-12-03T22:55:54.142Z,101300.94
2022-12-03T22:58:56.834Z,101301.69
2022-12-03T23:02:01.265Z,101303.00
2022-12-03T23:05:03.659Z,101289.47
2022-12-03T23:08:07.928Z,101296.50
2022-12-03T23:11:10.563Z,101294.66
2022-12-03T23:14:12.882Z,101287.75
2022-12-03T23:17:15.379Z,101290.84
2022-12-03T23:20:17.530Z,101288.16
2022-12-03T23:23:20.861Z,101288.97
2022-12-03T23:26:22.800Z,101292.19
2022-12-03T23:29:25.084Z,101284.63
2022-12-03T23:32:28.325Z,101289.91
2022-12-03T23:35:31.073Z,101284.81
2022-12-03T23:38:33.109Z,101287.19
2022-12-03T23:41:36.124Z,101275.19
2022-12-03T23:44:38.185Z,101275.41
2022-12-03T23:47:41.624Z,101265.28
2022-12-03T23:50:43.783Z,101269.94
2022-12-03T23:53:46.149Z,101273.87
2022-12-03T23:56:48.233Z,101268.91
2022-12-03T23:59:50.567Z,101263.41
